Terminal Aerodrome Forecast
Issued by NWS

Home | Current Version | Previous Version | Text Only | Print | Product List | Glossary On
Versions: 1 2 3 4 5 6 7 8 9 10 11 12 13 14 15 16 17 18 19 20 21 22 23 24 25 26 27
000
FTUS43 KGRB 230500
TAFMTW
TAF
KMTW 230536Z 2306/2406 00000KT 1/4SM FG VV002
      TEMPO 2306/2310 1SM BR SCT002 OVC006
     FM231600 08006KT 3SM BR BKN005
     FM231900 09005KT 5SM BR SCT005 BKN018
     FM240000 07005KT 3SM BR BKN003=

USA.gov is the U.S. government's official web portal to all federal, state and local government web resources and services.